createdAt,value
2023-04-02T00:01:37.204Z,99616.28
2023-04-02T00:05:56.242Z,99601.47
2023-04-02T00:10:40.041Z,99595.13
2023-04-02T00:14:55.206Z,99594.41
2023-04-02T00:19:17.335Z,99597.38
2023-04-02T00:23:29.682Z,99595.59
2023-04-02T00:27:43.232Z,99594.78
2023-04-02T00:31:59.404Z,99599.47
2023-04-02T00:36:13.501Z,99592.38
2023-04-02T00:40:32.293Z,99593.34
2023-04-02T00:44:47.099Z,99587.25
2023-04-02T00:49:23.962Z,99583.69
2023-04-02T00:53:37.199Z,99580.28
2023-04-02T00:57:51.407Z,99576.75
2023-04-02T01:02:17.723Z,99575.09
2023-04-02T01:06:37.754Z,99580.56
2023-04-02T01:11:03.975Z,99572.91
2023-04-02T01:15:24.656Z,99564.19
2023-04-02T01:19:49.361Z,99571.03
2023-04-02T01:24:05.910Z,99565.69
2023-04-02T01:28:51.822Z,99550.84
2023-04-02T01:33:05.930Z,99543.69
2023-04-02T01:37:29.107Z,99547.78
2023-04-02T01:41:54.485Z,99548.56
2023-04-02T01:46:34.654Z,99553.94
2023-04-02T01:50:50.241Z,99545.16
2023-04-02T01:55:03.971Z,99547.78
2023-04-02T01:59:20.409Z,99545.91
2023-04-02T02:03:44.058Z,99552.00
2023-04-02T02:07:58.971Z,99545.16
2023-04-02T02:12:15.721Z,99538.13
2023-04-02T02:16:30.627Z,99524.00
2023-04-02T02:20:43.235Z,99529.84
2023-04-02T02:24:57.913Z,99519.22
2023-04-02T02:29:16.113Z,99535.47
2023-04-02T02:33:37.576Z,99552.06
2023-04-02T02:38:06.744Z,99566.72
2023-04-02T02:42:40.041Z,99556.81
2023-04-02T02:47:17.680Z,99557.63
2023-04-02T02:51:47.508Z,99539.19
2023-04-02T02:56:04.945Z,99553.84
2023-04-02T03:00:25.007Z,99552.81
2023-04-02T03:04:39.374Z,99546.19
2023-04-02T03:09:13.766Z,99544.06
2023-04-02T03:13:35.734Z,99538.88
2023-04-02T03:18:00.785Z,99536.03
2023-04-02T03:23:17.944Z,99536.75
2023-04-02T03:27:41.003Z,99545.53
2023-04-02T03:32:36.813Z,99537.56
2023-04-02T03:37:02.514Z,99542.53
2023-04-02T03:41:32.424Z,99547.91
2023-04-02T03:45:52.041Z,99563.44
2023-04-02T03:50:26.016Z,99571.50
2023-04-02T03:54:54.163Z,99579.28
2023-04-02T03:59:16.579Z,99590.56
2023-04-02T04:03:31.603Z,99589.81
2023-04-02T04:07:45.521Z,99588.03
2023-04-02T04:12:10.785Z,99593.50
2023-04-02T04:16:30.335Z,99594.16
2023-04-02T04:20:50.808Z,99608.56
2023-04-02T04:25:08.063Z,99607.03
2023-04-02T04:29:40.967Z,99620.47
2023-04-02T04:34:03.369Z,99630.31
2023-04-02T04:38:28.514Z,99626.72
2023-04-02T04:42:45.111Z,99646.16
2023-04-02T04:47:20.831Z,99651.75
2023-04-02T04:51:58.939Z,99663.50
2023-04-02T04:56:19.306Z,99677.81
2023-04-02T05:01:00.848Z,99708.53
2023-04-02T05:05:25.922Z,99712.16
2023-04-02T05:09:54.387Z,99737.09
2023-04-02T05:14:41.248Z,99762.69
2023-04-02T05:19:07.057Z,99779.53
2023-04-02T05:23:30.051Z,99778.72
2023-04-02T05:27:53.457Z,99791.03
2023-04-02T05:32:25.272Z,99805.09
2023-04-02T05:36:38.694Z,99812.09
2023-04-02T05:41:08.622Z,99813.78
2023-04-02T05:45:44.567Z,99800.50
2023-04-02T05:50:17.369Z,99802.97
2023-04-02T05:54:43.881Z,99797.75
2023-04-02T05:58:59.571Z,99795.78
2023-04-02T06:04:07.398Z,99780.69
2023-04-02T06:08:26.947Z,99776.22
2023-04-02T06:12:54.951Z,99769.03
2023-04-02T06:17:07.719Z,99760.03
2023-04-02T06:21:22.661Z,99756.53
2023-04-02T06:25:43.933Z,99752.81
2023-04-02T06:30:03.174Z,99757.06
2023-04-02T06:34:19.733Z,99750.63
2023-04-02T06:38:42.515Z,99726.31
2023-04-02T06:43:00.113Z,99716.47
2023-04-02T06:47:45.155Z,99711.84
2023-04-02T06:52:06.664Z,99702.63
2023-04-02T06:56:37.688Z,99695.19
2023-04-02T07:00:51.657Z,99698.03
2023-04-02T07:05:13.183Z,99694.75
2023-04-02T07:09:31.381Z,99684.81
2023-04-02T07:13:46.606Z,99693.16
2023-04-02T07:17:59.847Z,99681.00
2023-04-02T07:22:13.924Z,99680.75
2023-04-02T07:26:29.434Z,99677.94
2023-04-02T07:30:43.643Z,99677.63
2023-04-02T07:34:56.100Z,99662.31
2023-04-02T07:39:08.533Z,99665.28
2023-04-02T07:43:22.155Z,99663.84
2023-04-02T07:47:34.557Z,99664.97
2023-04-02T07:51:47.762Z,99660.63
2023-04-02T07:56:02.310Z,99655.94
2023-04-02T08:00:16.010Z,99659.78
2023-04-02T08:04:28.581Z,99658.63
2023-04-02T08:08:41.461Z,99665.00
2023-04-02T08:12:53.820Z,99674.84
2023-04-02T08:17:06.564Z,99677.97
2023-04-02T08:21:18.992Z,99678.28
2023-04-02T08:25:31.754Z,99680.84
2023-04-02T08:29:44.225Z,99677.84
2023-04-02T08:33:57.267Z,99672.63
2023-04-02T08:38:14.848Z,99666.59
2023-04-02T08:42:32.609Z,99667.50
2023-04-02T08:46:48.084Z,99669.75
2023-04-02T08:51:02.457Z,99668.53
2023-04-02T08:55:30.280Z,99669.75
2023-04-02T08:59:44.800Z,99667.72
2023-04-02T09:03:59.591Z,99663.34
2023-04-02T09:08:24.871Z,99663.28
2023-04-02T09:12:37.264Z,99650.22
2023-04-02T09:16:56.848Z,99657.53
2023-04-02T09:21:21.278Z,99652.00
2023-04-02T09:25:34.229Z,99643.69
2023-04-02T09:29:49.753Z,99644.13
2023-04-02T09:34:02.942Z,99637.72
2023-04-02T09:38:33.078Z,99631.84
2023-04-02T09:42:45.883Z,99627.44
2023-04-02T09:47:07.673Z,99624.53
2023-04-02T09:51:23.198Z,99621.72
2023-04-02T09:55:36.153Z,99620.75
2023-04-02T09:59:48.719Z,99611.63
2023-04-02T10:04:03.762Z,99603.41
2023-04-02T10:08:30.472Z,99601.94
2023-04-02T10:12:46.441Z,99612.13
2023-04-02T10:17:08.796Z,99612.47
2023-04-02T10:21:27.651Z,99620.19
2023-04-02T10:25:47.261Z,99614.91
2023-04-02T10:30:25.935Z,99613.84
2023-04-02T10:35:02.568Z,99616.84
2023-04-02T10:39:33.500Z,99615.84
2023-04-02T10:44:09.585Z,99598.03
2023-04-02T10:48:36.402Z,99599.47
2023-04-02T10:53:03.295Z,99598.50
2023-04-02T10:57:37.374Z,99600.03
2023-04-02T11:01:51.971Z,99597.75
2023-04-02T11:06:14.773Z,99586.50
2023-04-02T11:10:32.260Z,99588.00
2023-04-02T11:14:44.607Z,99592.25
2023-04-02T11:19:25.642Z,99577.97
2023-04-02T11:24:02.547Z,99584.41
2023-04-02T11:28:21.115Z,99583.38
2023-04-02T11:32:43.253Z,99581.16
2023-04-02T11:36:56.591Z,99568.63
2023-04-02T11:41:09.293Z,99571.47
2023-04-02T11:45:21.666Z,99559.63
2023-04-02T11:49:40.298Z,99554.59
2023-04-02T11:53:54.643Z,99561.44
2023-04-02T11:58:25.669Z,99568.50
2023-04-02T12:03:03.757Z,99577.53
2023-04-02T12:07:52.551Z,99565.91
2023-04-02T12:12:25.744Z,99558.44
2023-04-02T12:16:38.406Z,99559.28
2023-04-02T12:20:56.682Z,99551.09
2023-04-02T12:25:22.084Z,99560.06
2023-04-02T12:29:34.630Z,99545.03
2023-04-02T12:33:47.124Z,99553.59
2023-04-02T12:37:59.814Z,99551.06
2023-04-02T12:42:36.619Z,99539.28
2023-04-02T12:46:50.277Z,99532.09
2023-04-02T12:51:04.560Z,99541.44
2023-04-02T12:55:25.804Z,99528.59
2023-04-02T12:59:39.342Z,99525.13
2023-04-02T13:04:15.474Z,99518.56
2023-04-02T13:08:43.051Z,99526.06
2023-04-02T13:13:01.307Z,99520.72
2023-04-02T13:17:46.958Z,99514.34
2023-04-02T13:22:02.021Z,99513.09
2023-04-02T13:26:25.065Z,99513.56
2023-04-02T13:30:37.694Z,99524.25
2023-04-02T13:34:50.218Z,99527.13
2023-04-02T13:39:02.676Z,99530.78
2023-04-02T13:43:20.569Z,99526.03
2023-04-02T13:47:32.945Z,99522.41
2023-04-02T13:52:00.174Z,99527.03
2023-04-02T13:56:15.712Z,99532.00
2023-04-02T14:00:28.084Z,99540.28
2023-04-02T14:04:46.627Z,99543.66
2023-04-02T14:09:05.316Z,99532.91
2023-04-02T14:13:53.237Z,99532.88
2023-04-02T14:18:14.536Z,99528.97
2023-04-02T14:22:37.616Z,99535.84
2023-04-02T14:27:00.158Z,99539.97
2023-04-02T14:31:45.072Z,99541.88
2023-04-02T14:36:09.674Z,99547.94
2023-04-02T14:40:47.033Z,99552.44
2023-04-02T14:45:12.951Z,99548.47
2023-04-02T14:49:42.044Z,99553.72
2023-04-02T14:54:12.746Z,99548.44
2023-04-02T14:58:34.259Z,99542.66
2023-04-02T15:02:49.495Z,99537.69
2023-04-02T15:07:19.154Z,99531.09
2023-04-02T15:11:43.698Z,99531.59
2023-04-02T15:16:06.463Z,99529.22
2023-04-02T15:20:20.906Z,99526.25
2023-04-02T15:24:47.998Z,99536.84
2023-04-02T15:29:38.833Z,99532.66
2023-04-02T15:34:12.523Z,99528.88
2023-04-02T15:38:44.238Z,99524.78
2023-04-02T15:43:13.408Z,99533.03
2023-04-02T15:47:37.488Z,99537.91
2023-04-02T15:52:06.036Z,99551.47
2023-04-02T15:56:36.708Z,99558.66
2023-04-02T16:01:17.649Z,99560.03
2023-04-02T16:06:20.829Z,99557.59
2023-04-02T16:10:42.865Z,99556.16
2023-04-02T16:15:06.310Z,99567.63
2023-04-02T16:19:44.350Z,99575.38
2023-04-02T16:23:57.245Z,99574.00
2023-04-02T16:28:24.341Z,99581.47
2023-04-02T16:33:02.949Z,99586.84
2023-04-02T16:37:42.944Z,99585.50
2023-04-02T16:42:03.129Z,99598.53
2023-04-02T16:46:38.345Z,99596.50
2023-04-02T16:51:18.188Z,99599.25
2023-04-02T16:56:04.509Z,99599.53
2023-04-02T17:00:26.510Z,99620.00
2023-04-02T17:04:59.358Z,99616.53
2023-04-02T17:09:16.233Z,99632.03
2023-04-02T17:13:34.582Z,99620.44
2023-04-02T17:17:47.099Z,99630.56
2023-04-02T17:22:02.961Z,99619.19
2023-04-02T17:26:18.510Z,99630.31
2023-04-02T17:30:46.284Z,99631.81
2023-04-02T17:35:33.531Z,99632.34
2023-04-02T17:40:04.382Z,99632.84
2023-04-02T17:44:43.141Z,99639.94
2023-04-02T17:49:07.969Z,99639.56
2023-04-02T17:53:48.921Z,99635.22
2023-04-02T17:58:21.276Z,99633.97
2023-04-02T18:03:01.767Z,99632.13
2023-04-02T18:07:22.717Z,99634.72
2023-04-02T18:12:10.419Z,99645.75
2023-04-02T18:16:44.633Z,99642.44
2023-04-02T18:21:27.666Z,99639.63
2023-04-02T18:25:44.083Z,99640.34
2023-04-02T18:30:31.450Z,99639.72
2023-04-02T18:34:56.384Z,99634.81
2023-04-02T18:39:22.488Z,99638.31
2023-04-02T18:44:02.759Z,99635.97
2023-04-02T18:48:37.422Z,99646.66
2023-04-02T18:52:51.261Z,99643.94
2023-04-02T18:57:12.003Z,99645.53
2023-04-02T19:06:27.391Z,99643.84
2023-04-02T19:10:44.459Z,99637.94
2023-04-02T19:14:59.926Z,99640.69
2023-04-02T19:19:20.040Z,99637.69
2023-04-02T19:24:01.090Z,99640.34
2023-04-02T19:28:30.804Z,99641.66
2023-04-02T19:33:15.563Z,99642.78
2023-04-02T19:37:27.898Z,99636.38
2023-04-02T19:41:49.927Z,99642.72
2023-04-02T19:46:02.989Z,99648.22
2023-04-02T19:50:15.661Z,99638.66
2023-04-02T19:54:28.196Z,99635.16
2023-04-02T19:58:40.786Z,99640.72
2023-04-02T20:02:53.513Z,99639.41
2023-04-02T20:07:06.013Z,99649.47
2023-04-02T20:11:18.628Z,99637.38
2023-04-02T20:15:31.072Z,99649.00
2023-04-02T20:19:43.542Z,99640.09
2023-04-02T20:23:56.886Z,99645.19
2023-04-02T20:28:09.341Z,99637.97
2023-04-02T20:32:22.026Z,99640.88
2023-04-02T20:36:34.773Z,99629.47
2023-04-02T20:40:53.080Z,99628.47
2023-04-02T20:45:06.557Z,99627.91
2023-04-02T20:49:19.060Z,99626.63
2023-04-02T20:53:34.687Z,99629.78
2023-04-02T20:57:47.810Z,99628.88
2023-04-02T21:02:00.213Z,99620.00
2023-04-02T21:06:15.157Z,99609.41
2023-04-02T21:10:27.681Z,99615.38
2023-04-02T21:14:40.508Z,99603.69
2023-04-02T21:18:53.482Z,99606.63
2023-04-02T21:23:05.917Z,99610.97
2023-04-02T21:27:18.335Z,99598.00
2023-04-02T21:31:35.125Z,99598.78
2023-04-02T21:35:47.747Z,99600.00
2023-04-02T21:40:00.197Z,99595.03
2023-04-02T21:44:16.928Z,99591.50
2023-04-02T21:48:32.544Z,99598.38
2023-04-02T21:52:46.187Z,99596.59
2023-04-02T21:56:59.627Z,99594.81
2023-04-02T22:01:26.060Z,99585.19
2023-04-02T22:05:39.939Z,99573.59
2023-04-02T22:09:53.686Z,99573.84
2023-04-02T22:14:06.228Z,99558.19
2023-04-02T22:18:18.572Z,99561.22
2023-04-02T22:22:32.168Z,99555.06
2023-04-02T22:26:45.607Z,99552.50
2023-04-02T22:31:05.021Z,99549.13
2023-04-02T22:35:17.596Z,99536.97
2023-04-02T22:39:30.109Z,99535.19
2023-04-02T22:43:46.700Z,99524.63
2023-04-02T22:47:59.136Z,99522.28
2023-04-02T22:52:11.591Z,99520.00
2023-04-02T22:56:33.065Z,99516.91
2023-04-02T23:00:46.676Z,99515.84
2023-04-02T23:04:59.092Z,99507.28
2023-04-02T23:09:11.656Z,99513.59
2023-04-02T23:13:24.127Z,99503.94
2023-04-02T23:17:37.895Z,99489.16
2023-04-02T23:21:50.453Z,99487.75
2023-04-02T23:26:11.634Z,99487.56
2023-04-02T23:30:24.123Z,99479.88
2023-04-02T23:34:45.113Z,99472.03
2023-04-02T23:39:11.064Z,99465.81
2023-04-02T23:43:23.444Z,99472.81
2023-04-02T23:47:35.941Z,99457.19
2023-04-02T23:51:48.414Z,99449.84
2023-04-02T23:56:00.908Z,99440.66
